Las Peladas, Argentina
Current Conditions -  °F | °C
As of 11:00 PM on Wednesday 22 Oct 2014 (Local Time) from SCAT Reporting Station
NA  
Wind Chill: 57°   Ceiling: NA
Heat Index: 57°   Visibility: 6mi
Dew Point: 52°   Wind: 3mph
Humidity: 82%   Direction: 200°SSW
Pressure: 30"   Gusts: NA
Location:  27.04°S, 68.09°W
Report Text: SCAT 230200Z AUTO 20003KT 160V230 9999 // ///009 14/11 Q1016
Loading
Personal Weather Stations






























Interactive Weather Map New forecast layout! Learn more

10-Day Weather Forecast

Advertisements
Track Severe Weather on mobile